sensor_id;sensor_type;location;lat;lon;timestamp;P1;durP1;ratioP1;P2;durP2;ratioP2
70707;SDS011;58277;47.316;18.908;2023-04-09T00:01:28;25.00;;;12.63;;
70707;SDS011;58277;47.316;18.908;2023-04-09T00:03:51;26.43;;;12.53;;
70707;SDS011;58277;47.316;18.908;2023-04-09T00:06:13;27.98;;;13.02;;
70707;SDS011;58277;47.316;18.908;2023-04-09T00:08:36;30.25;;;13.80;;
70707;SDS011;58277;47.316;18.908;2023-04-09T00:10:59;29.40;;;13.60;;
70707;SDS011;58277;47.316;18.908;2023-04-09T00:13:22;29.65;;;13.88;;
70707;SDS011;58277;47.316;18.908;2023-04-09T00:16:00;29.77;;;13.67;;
70707;SDS011;58277;47.316;18.908;2023-04-09T00:18:23;27.92;;;12.98;;
70707;SDS011;58277;47.316;18.908;2023-04-09T00:20:45;31.65;;;14.25;;
70707;SDS011;58277;47.316;18.908;2023-04-09T00:23:08;28.65;;;13.65;;
70707;SDS011;58277;47.316;18.908;2023-04-09T00:25:34;29.17;;;14.00;;
70707;SDS011;58277;47.316;18.908;2023-04-09T00:27:56;28.93;;;13.27;;
70707;SDS011;58277;47.316;18.908;2023-04-09T00:30:20;29.73;;;13.52;;
70707;SDS011;58277;47.316;18.908;2023-04-09T00:32:43;28.50;;;13.70;;
70707;SDS011;58277;47.316;18.908;2023-04-09T00:35:06;28.35;;;13.32;;
70707;SDS011;58277;47.316;18.908;2023-04-09T00:37:29;30.48;;;14.27;;
70707;SDS011;58277;47.316;18.908;2023-04-09T00:39:52;29.70;;;13.67;;
70707;SDS011;58277;47.316;18.908;2023-04-09T00:42:14;28.25;;;13.18;;
70707;SDS011;58277;47.316;18.908;2023-04-09T00:44:37;29.00;;;13.70;;
70707;SDS011;58277;47.316;18.908;2023-04-09T00:47:00;28.50;;;13.00;;
70707;SDS011;58277;47.316;18.908;2023-04-09T00:49:23;26.42;;;12.73;;
70707;SDS011;58277;47.316;18.908;2023-04-09T00:51:47;26.43;;;12.07;;
70707;SDS011;58277;47.316;18.908;2023-04-09T00:54:10;27.58;;;12.25;;
70707;SDS011;58277;47.316;18.908;2023-04-09T00:56:33;26.13;;;12.50;;
70707;SDS011;58277;47.316;18.908;2023-04-09T00:58:58;24.25;;;11.13;;
70707;SDS011;58277;47.316;18.908;2023-04-09T01:01:21;27.33;;;12.32;;
70707;SDS011;58277;47.316;18.908;2023-04-09T01:03:44;25.07;;;12.03;;
70707;SDS011;58277;47.316;18.908;2023-04-09T01:06:09;24.48;;;11.43;;
70707;SDS011;58277;47.316;18.908;2023-04-09T01:10:58;24.00;;;10.70;;
70707;SDS011;58277;47.316;18.908;2023-04-09T01:13:36;24.40;;;11.18;;
70707;SDS011;58277;47.316;18.908;2023-04-09T01:16:06;24.10;;;11.00;;
70707;SDS011;58277;47.316;18.908;2023-04-09T01:18:41;24.42;;;11.05;;
70707;SDS011;58277;47.316;18.908;2023-04-09T01:21:09;27.63;;;11.95;;
70707;SDS011;58277;47.316;18.908;2023-04-09T01:29:15;24.63;;;11.30;;
70707;SDS011;58277;47.316;18.908;2023-04-09T01:31:41;22.88;;;10.63;;
70707;SDS011;58277;47.316;18.908;2023-04-09T01:34:05;24.17;;;11.50;;
70707;SDS011;58277;47.316;18.908;2023-04-09T01:36:30;24.52;;;11.60;;
70707;SDS011;58277;47.316;18.908;2023-04-09T01:38:54;25.92;;;12.43;;
70707;SDS011;58277;47.316;18.908;2023-04-09T01:41:19;23.80;;;11.17;;
70707;SDS011;58277;47.316;18.908;2023-04-09T01:43:45;24.55;;;11.40;;
70707;SDS011;58277;47.316;18.908;2023-04-09T01:46:10;26.13;;;12.32;;
70707;SDS011;58277;47.316;18.908;2023-04-09T01:48:34;26.73;;;12.00;;
70707;SDS011;58277;47.316;18.908;2023-04-09T01:50:58;27.52;;;13.07;;
70707;SDS011;58277;47.316;18.908;2023-04-09T01:53:21;27.67;;;12.43;;
70707;SDS011;58277;47.316;18.908;2023-04-09T01:55:44;24.35;;;12.23;;
70707;SDS011;58277;47.316;18.908;2023-04-09T01:58:07;27.50;;;12.57;;
70707;SDS011;58277;47.316;18.908;2023-04-09T02:00:31;26.48;;;12.25;;
70707;SDS011;58277;47.316;18.908;2023-04-09T02:03:01;25.25;;;12.45;;
70707;SDS011;58277;47.316;18.908;2023-04-09T02:05:28;25.90;;;12.43;;
70707;SDS011;58277;47.316;18.908;2023-04-09T02:07:57;26.45;;;12.70;;
70707;SDS011;58277;47.316;18.908;2023-04-09T02:10:25;25.83;;;12.35;;
70707;SDS011;58277;47.316;18.908;2023-04-09T02:12:51;27.48;;;12.35;;
70707;SDS011;58277;47.316;18.908;2023-04-09T02:15:15;26.25;;;12.48;;
70707;SDS011;58277;47.316;18.908;2023-04-09T02:17:38;25.73;;;11.80;;
70707;SDS011;58277;47.316;18.908;2023-04-09T02:20:02;26.35;;;11.55;;
70707;SDS011;58277;47.316;18.908;2023-04-09T02:22:25;26.95;;;12.63;;
70707;SDS011;58277;47.316;18.908;2023-04-09T02:24:47;27.42;;;12.27;;
70707;SDS011;58277;47.316;18.908;2023-04-09T02:27:10;26.40;;;12.57;;
70707;SDS011;58277;47.316;18.908;2023-04-09T02:29:33;25.77;;;11.33;;
70707;SDS011;58277;47.316;18.908;2023-04-09T02:31:56;28.15;;;12.18;;
70707;SDS011;58277;47.316;18.908;2023-04-09T02:34:19;25.23;;;12.00;;
70707;SDS011;58277;47.316;18.908;2023-04-09T02:36:42;25.60;;;11.88;;
70707;SDS011;58277;47.316;18.908;2023-04-09T02:39:05;26.58;;;12.43;;
70707;SDS011;58277;47.316;18.908;2023-04-09T02:41:29;26.97;;;11.90;;
70707;SDS011;58277;47.316;18.908;2023-04-09T02:43:51;25.45;;;11.88;;
70707;SDS011;58277;47.316;18.908;2023-04-09T02:46:14;26.30;;;12.02;;
70707;SDS011;58277;47.316;18.908;2023-04-09T02:48:37;26.53;;;11.93;;
70707;SDS011;58277;47.316;18.908;2023-04-09T02:51:00;24.48;;;12.05;;
70707;SDS011;58277;47.316;18.908;2023-04-09T02:53:22;25.30;;;12.30;;
70707;SDS011;58277;47.316;18.908;2023-04-09T02:55:45;26.90;;;12.63;;
70707;SDS011;58277;47.316;18.908;2023-04-09T02:58:08;26.17;;;12.20;;
70707;SDS011;58277;47.316;18.908;2023-04-09T03:00:31;25.80;;;11.88;;
70707;SDS011;58277;47.316;18.908;2023-04-09T03:02:54;26.70;;;12.82;;
70707;SDS011;58277;47.316;18.908;2023-04-09T03:05:17;25.97;;;12.33;;
70707;SDS011;58277;47.316;18.908;2023-04-09T03:07:39;26.23;;;12.18;;
70707;SDS011;58277;47.316;18.908;2023-04-09T03:10:02;25.70;;;12.35;;
70707;SDS011;58277;47.316;18.908;2023-04-09T03:12:26;28.00;;;12.68;;
70707;SDS011;58277;47.316;18.908;2023-04-09T03:14:49;26.77;;;13.15;;
70707;SDS011;58277;47.316;18.908;2023-04-09T03:17:12;27.50;;;12.40;;
70707;SDS011;58277;47.316;18.908;2023-04-09T03:19:35;28.33;;;12.80;;
70707;SDS011;58277;47.316;18.908;2023-04-09T03:21:58;28.13;;;12.85;;
70707;SDS011;58277;47.316;18.908;2023-04-09T03:24:23;28.65;;;13.07;;
70707;SDS011;58277;47.316;18.908;2023-04-09T03:26:46;29.23;;;13.82;;
70707;SDS011;58277;47.316;18.908;2023-04-09T03:29:09;29.53;;;13.50;;
70707;SDS011;58277;47.316;18.908;2023-04-09T03:31:33;29.48;;;12.85;;
70707;SDS011;58277;47.316;18.908;2023-04-09T03:33:56;29.38;;;13.85;;
70707;SDS011;58277;47.316;18.908;2023-04-09T03:36:19;30.38;;;14.00;;
70707;SDS011;58277;47.316;18.908;2023-04-09T03:38:58;30.30;;;14.07;;
70707;SDS011;58277;47.316;18.908;2023-04-09T03:41:35;29.87;;;14.10;;
70707;SDS011;58277;47.316;18.908;2023-04-09T03:44:01;32.00;;;13.40;;
70707;SDS011;58277;47.316;18.908;2023-04-09T03:46:30;30.50;;;14.15;;
70707;SDS011;58277;47.316;18.908;2023-04-09T03:48:55;32.05;;;13.93;;
70707;SDS011;58277;47.316;18.908;2023-04-09T03:51:24;31.17;;;14.60;;
70707;SDS011;58277;47.316;18.908;2023-04-09T03:53:51;29.53;;;13.77;;
70707;SDS011;58277;47.316;18.908;2023-04-09T03:56:14;32.50;;;14.38;;
70707;SDS011;58277;47.316;18.908;2023-04-09T03:58:37;31.65;;;14.60;;
70707;SDS011;58277;47.316;18.908;2023-04-09T04:01:02;31.67;;;14.63;;
70707;SDS011;58277;47.316;18.908;2023-04-09T04:03:31;34.17;;;14.68;;
70707;SDS011;58277;47.316;18.908;2023-04-09T04:06:20;33.10;;;13.73;;
70707;SDS011;58277;47.316;18.908;2023-04-09T04:09:01;30.67;;;13.90;;
70707;SDS011;58277;47.316;18.908;2023-04-09T04:11:47;32.30;;;14.35;;
70707;SDS011;58277;47.316;18.908;2023-04-09T04:14:11;30.80;;;13.85;;
70707;SDS011;58277;47.316;18.908;2023-04-09T04:16:37;32.97;;;14.13;;
70707;SDS011;58277;47.316;18.908;2023-04-09T04:19:02;32.43;;;14.53;;
70707;SDS011;58277;47.316;18.908;2023-04-09T04:21:27;31.58;;;13.95;;
70707;SDS011;58277;47.316;18.908;2023-04-09T04:23:55;33.90;;;14.90;;
70707;SDS011;58277;47.316;18.908;2023-04-09T04:26:21;32.05;;;13.65;;
70707;SDS011;58277;47.316;18.908;2023-04-09T04:28:45;31.50;;;13.80;;
70707;SDS011;58277;47.316;18.908;2023-04-09T04:31:19;30.57;;;13.27;;
70707;SDS011;58277;47.316;18.908;2023-04-09T04:33:41;29.20;;;13.70;;
70707;SDS011;58277;47.316;18.908;2023-04-09T04:36:11;32.78;;;14.43;;
70707;SDS011;58277;47.316;18.908;2023-04-09T04:38:45;28.17;;;12.65;;
70707;SDS011;58277;47.316;18.908;2023-04-09T04:41:13;29.00;;;13.00;;
70707;SDS011;58277;47.316;18.908;2023-04-09T04:43:41;28.40;;;12.77;;
70707;SDS011;58277;47.316;18.908;2023-04-09T04:46:12;30.42;;;13.18;;
70707;SDS011;58277;47.316;18.908;2023-04-09T04:48:35;28.75;;;13.63;;
70707;SDS011;58277;47.316;18.908;2023-04-09T04:50:59;29.90;;;12.95;;
70707;SDS011;58277;47.316;18.908;2023-04-09T04:53:30;28.63;;;13.20;;
70707;SDS011;58277;47.316;18.908;2023-04-09T04:55:55;26.83;;;12.03;;
70707;SDS011;58277;47.316;18.908;2023-04-09T04:58:20;26.02;;;12.73;;
70707;SDS011;58277;47.316;18.908;2023-04-09T05:00:48;29.30;;;13.13;;
70707;SDS011;58277;47.316;18.908;2023-04-09T05:03:11;28.98;;;12.75;;
70707;SDS011;58277;47.316;18.908;2023-04-09T05:05:47;30.63;;;13.48;;
70707;SDS011;58277;47.316;18.908;2023-04-09T05:08:10;29.87;;;13.50;;
70707;SDS011;58277;47.316;18.908;2023-04-09T05:10:34;26.00;;;12.15;;
70707;SDS011;58277;47.316;18.908;2023-04-09T05:12:57;27.30;;;12.13;;
70707;SDS011;58277;47.316;18.908;2023-04-09T05:15:25;26.27;;;11.88;;
70707;SDS011;58277;47.316;18.908;2023-04-09T05:17:48;27.73;;;12.13;;
70707;SDS011;58277;47.316;18.908;2023-04-09T05:20:12;25.93;;;12.03;;
70707;SDS011;58277;47.316;18.908;2023-04-09T05:23:01;28.42;;;13.15;;
70707;SDS011;58277;47.316;18.908;2023-04-09T05:25:30;27.52;;;13.23;;
70707;SDS011;58277;47.316;18.908;2023-04-09T05:27:55;29.77;;;13.35;;
70707;SDS011;58277;47.316;18.908;2023-04-09T05:30:19;27.55;;;12.93;;
70707;SDS011;58277;47.316;18.908;2023-04-09T05:32:43;27.57;;;12.70;;
70707;SDS011;58277;47.316;18.908;2023-04-09T05:35:05;29.25;;;12.88;;
70707;SDS011;58277;47.316;18.908;2023-04-09T05:37:34;29.90;;;13.43;;
70707;SDS011;58277;47.316;18.908;2023-04-09T05:39:57;28.35;;;12.75;;
70707;SDS011;58277;47.316;18.908;2023-04-09T05:42:20;29.90;;;13.48;;
70707;SDS011;58277;47.316;18.908;2023-04-09T05:45:05;28.70;;;12.87;;
70707;SDS011;58277;47.316;18.908;2023-04-09T05:47:28;25.73;;;12.43;;
70707;SDS011;58277;47.316;18.908;2023-04-09T05:49:58;28.27;;;12.63;;
70707;SDS011;58277;47.316;18.908;2023-04-09T05:52:22;26.90;;;12.45;;
70707;SDS011;58277;47.316;18.908;2023-04-09T05:54:46;31.65;;;13.10;;
70707;SDS011;58277;47.316;18.908;2023-04-09T05:57:13;27.27;;;12.47;;
70707;SDS011;58277;47.316;18.908;2023-04-09T05:59:40;30.10;;;13.48;;
70707;SDS011;58277;47.316;18.908;2023-04-09T06:02:03;29.73;;;13.25;;
70707;SDS011;58277;47.316;18.908;2023-04-09T06:04:27;33.10;;;13.43;;
70707;SDS011;58277;47.316;18.908;2023-04-09T06:06:50;30.17;;;13.90;;
70707;SDS011;58277;47.316;18.908;2023-04-09T06:09:13;28.23;;;12.97;;
70707;SDS011;58277;47.316;18.908;2023-04-09T06:11:36;28.02;;;12.43;;
70707;SDS011;58277;47.316;18.908;2023-04-09T06:13:59;26.92;;;12.93;;
70707;SDS011;58277;47.316;18.908;2023-04-09T06:16:22;29.42;;;13.38;;
70707;SDS011;58277;47.316;18.908;2023-04-09T06:18:45;28.83;;;13.98;;
70707;SDS011;58277;47.316;18.908;2023-04-09T06:21:10;26.70;;;12.53;;
70707;SDS011;58277;47.316;18.908;2023-04-09T06:23:35;27.58;;;12.90;;
70707;SDS011;58277;47.316;18.908;2023-04-09T06:25:58;28.95;;;13.75;;
70707;SDS011;58277;47.316;18.908;2023-04-09T06:28:21;29.60;;;13.05;;
70707;SDS011;58277;47.316;18.908;2023-04-09T06:30:44;24.75;;;12.73;;
70707;SDS011;58277;47.316;18.908;2023-04-09T06:33:08;26.40;;;12.00;;
70707;SDS011;58277;47.316;18.908;2023-04-09T06:35:30;27.35;;;11.93;;
70707;SDS011;58277;47.316;18.908;2023-04-09T06:37:53;27.10;;;12.80;;
70707;SDS011;58277;47.316;18.908;2023-04-09T06:40:16;27.42;;;12.52;;
70707;SDS011;58277;47.316;18.908;2023-04-09T06:42:42;26.55;;;13.05;;
70707;SDS011;58277;47.316;18.908;2023-04-09T06:45:16;26.93;;;13.23;;
70707;SDS011;58277;47.316;18.908;2023-04-09T06:47:39;24.83;;;11.80;;
70707;SDS011;58277;47.316;18.908;2023-04-09T06:50:01;24.60;;;12.27;;
70707;SDS011;58277;47.316;18.908;2023-04-09T06:52:25;24.17;;;12.25;;
70707;SDS011;58277;47.316;18.908;2023-04-09T06:54:47;24.92;;;12.18;;
70707;SDS011;58277;47.316;18.908;2023-04-09T06:57:10;24.83;;;11.47;;
70707;SDS011;58277;47.316;18.908;2023-04-09T06:59:33;24.67;;;12.10;;
70707;SDS011;58277;47.316;18.908;2023-04-09T07:01:55;27.63;;;13.25;;
70707;SDS011;58277;47.316;18.908;2023-04-09T07:04:20;23.83;;;12.43;;
70707;SDS011;58277;47.316;18.908;2023-04-09T07:06:45;24.45;;;11.98;;
70707;SDS011;58277;47.316;18.908;2023-04-09T07:09:08;22.60;;;11.43;;
70707;SDS011;58277;47.316;18.908;2023-04-09T07:11:30;23.30;;;11.60;;
70707;SDS011;58277;47.316;18.908;2023-04-09T07:13:53;23.83;;;11.45;;
70707;SDS011;58277;47.316;18.908;2023-04-09T07:16:18;23.13;;;11.68;;
70707;SDS011;58277;47.316;18.908;2023-04-09T07:18:40;22.15;;;11.23;;
70707;SDS011;58277;47.316;18.908;2023-04-09T07:21:03;22.53;;;11.27;;
70707;SDS011;58277;47.316;18.908;2023-04-09T07:23:26;21.48;;;11.68;;
70707;SDS011;58277;47.316;18.908;2023-04-09T07:25:49;21.98;;;11.48;;
70707;SDS011;58277;47.316;18.908;2023-04-09T07:28:13;20.15;;;10.57;;
70707;SDS011;58277;47.316;18.908;2023-04-09T07:30:37;21.23;;;11.38;;
70707;SDS011;58277;47.316;18.908;2023-04-09T07:33:01;22.00;;;11.33;;
70707;SDS011;58277;47.316;18.908;2023-04-09T07:35:23;21.77;;;11.50;;
70707;SDS011;58277;47.316;18.908;2023-04-09T07:37:46;22.40;;;11.45;;
70707;SDS011;58277;47.316;18.908;2023-04-09T07:40:09;21.27;;;11.30;;
70707;SDS011;58277;47.316;18.908;2023-04-09T07:42:33;20.50;;;10.68;;
70707;SDS011;58277;47.316;18.908;2023-04-09T07:44:56;18.70;;;10.33;;
70707;SDS011;58277;47.316;18.908;2023-04-09T07:47:18;19.08;;;10.45;;
70707;SDS011;58277;47.316;18.908;2023-04-09T07:49:43;16.40;;;9.15;;
70707;SDS011;58277;47.316;18.908;2023-04-09T07:52:06;18.73;;;9.73;;
70707;SDS011;58277;47.316;18.908;2023-04-09T07:54:29;18.05;;;9.07;;
70707;SDS011;58277;47.316;18.908;2023-04-09T07:56:55;16.63;;;8.90;;
70707;SDS011;58277;47.316;18.908;2023-04-09T07:59:17;19.40;;;9.57;;
70707;SDS011;58277;47.316;18.908;2023-04-09T08:01:40;16.70;;;9.40;;
70707;SDS011;58277;47.316;18.908;2023-04-09T08:04:03;16.30;;;8.82;;
70707;SDS011;58277;47.316;18.908;2023-04-09T08:06:27;14.85;;;7.97;;
70707;SDS011;58277;47.316;18.908;2023-04-09T08:08:49;15.07;;;8.40;;
70707;SDS011;58277;47.316;18.908;2023-04-09T08:11:13;16.17;;;9.07;;
70707;SDS011;58277;47.316;18.908;2023-04-09T08:13:35;15.38;;;8.63;;
70707;SDS011;58277;47.316;18.908;2023-04-09T08:16:01;15.23;;;8.70;;
70707;SDS011;58277;47.316;18.908;2023-04-09T08:18:25;15.23;;;8.60;;
70707;SDS011;58277;47.316;18.908;2023-04-09T08:20:48;14.90;;;8.77;;
70707;SDS011;58277;47.316;18.908;2023-04-09T08:23:11;12.55;;;7.45;;
70707;SDS011;58277;47.316;18.908;2023-04-09T08:25:34;15.43;;;8.27;;
70707;SDS011;58277;47.316;18.908;2023-04-09T08:27:56;14.20;;;8.38;;
70707;SDS011;58277;47.316;18.908;2023-04-09T08:30:19;14.50;;;8.15;;
70707;SDS011;58277;47.316;18.908;2023-04-09T08:32:42;14.63;;;7.83;;
70707;SDS011;58277;47.316;18.908;2023-04-09T08:35:06;14.70;;;7.85;;
70707;SDS011;58277;47.316;18.908;2023-04-09T08:37:30;13.20;;;7.70;;
70707;SDS011;58277;47.316;18.908;2023-04-09T08:39:53;13.15;;;7.40;;
70707;SDS011;58277;47.316;18.908;2023-04-09T08:42:16;13.90;;;8.02;;
70707;SDS011;58277;47.316;18.908;2023-04-09T08:44:41;14.87;;;8.10;;
70707;SDS011;58277;47.316;18.908;2023-04-09T08:47:07;14.68;;;8.10;;
70707;SDS011;58277;47.316;18.908;2023-04-09T08:49:32;14.05;;;7.88;;
70707;SDS011;58277;47.316;18.908;2023-04-09T08:51:55;12.90;;;7.60;;
70707;SDS011;58277;47.316;18.908;2023-04-09T08:54:18;13.35;;;7.55;;
70707;SDS011;58277;47.316;18.908;2023-04-09T08:56:41;13.70;;;7.47;;
70707;SDS011;58277;47.316;18.908;2023-04-09T08:59:04;12.82;;;7.15;;
70707;SDS011;58277;47.316;18.908;2023-04-09T09:01:28;12.93;;;6.80;;
70707;SDS011;58277;47.316;18.908;2023-04-09T09:03:59;11.98;;;7.38;;
70707;SDS011;58277;47.316;18.908;2023-04-09T09:06:27;12.43;;;7.38;;
70707;SDS011;58277;47.316;18.908;2023-04-09T09:08:58;12.23;;;6.90;;
70707;SDS011;58277;47.316;18.908;2023-04-09T09:11:32;13.07;;;6.97;;
70707;SDS011;58277;47.316;18.908;2023-04-09T09:13:56;12.50;;;6.93;;
70707;SDS011;58277;47.316;18.908;2023-04-09T09:16:23;12.25;;;6.38;;
70707;SDS011;58277;47.316;18.908;2023-04-09T09:18:46;11.68;;;6.85;;
70707;SDS011;58277;47.316;18.908;2023-04-09T09:21:10;12.37;;;6.30;;
70707;SDS011;58277;47.316;18.908;2023-04-09T09:23:34;13.68;;;6.50;;
70707;SDS011;58277;47.316;18.908;2023-04-09T09:25:58;12.82;;;6.97;;
70707;SDS011;58277;47.316;18.908;2023-04-09T09:28:20;11.68;;;6.22;;
70707;SDS011;58277;47.316;18.908;2023-04-09T09:30:43;12.30;;;6.82;;
70707;SDS011;58277;47.316;18.908;2023-04-09T09:33:10;11.07;;;5.93;;
70707;SDS011;58277;47.316;18.908;2023-04-09T09:35:52;12.73;;;6.43;;
70707;SDS011;58277;47.316;18.908;2023-04-09T09:38:16;11.73;;;6.32;;
70707;SDS011;58277;47.316;18.908;2023-04-09T09:40:39;11.23;;;6.90;;
70707;SDS011;58277;47.316;18.908;2023-04-09T09:43:02;11.00;;;6.63;;
70707;SDS011;58277;47.316;18.908;2023-04-09T09:45:25;11.67;;;6.30;;
70707;SDS011;58277;47.316;18.908;2023-04-09T09:47:48;11.15;;;6.43;;
70707;SDS011;58277;47.316;18.908;2023-04-09T09:50:11;10.93;;;6.57;;
70707;SDS011;58277;47.316;18.908;2023-04-09T09:52:33;11.80;;;6.90;;
70707;SDS011;58277;47.316;18.908;2023-04-09T09:54:58;11.85;;;6.78;;
70707;SDS011;58277;47.316;18.908;2023-04-09T09:57:25;11.07;;;6.60;;
70707;SDS011;58277;47.316;18.908;2023-04-09T10:00:09;12.63;;;7.20;;
70707;SDS011;58277;47.316;18.908;2023-04-09T10:02:47;11.98;;;6.75;;
70707;SDS011;58277;47.316;18.908;2023-04-09T10:05:28;12.50;;;6.68;;
70707;SDS011;58277;47.316;18.908;2023-04-09T10:07:53;12.45;;;6.82;;
70707;SDS011;58277;47.316;18.908;2023-04-09T10:10:18;12.33;;;7.07;;
70707;SDS011;58277;47.316;18.908;2023-04-09T10:12:41;11.90;;;7.45;;
70707;SDS011;58277;47.316;18.908;2023-04-09T10:15:06;12.05;;;6.88;;
70707;SDS011;58277;47.316;18.908;2023-04-09T10:17:30;11.88;;;6.93;;
70707;SDS011;58277;47.316;18.908;2023-04-09T10:19:57;12.00;;;7.18;;
70707;SDS011;58277;47.316;18.908;2023-04-09T10:22:28;14.20;;;7.97;;
70707;SDS011;58277;47.316;18.908;2023-04-09T10:24:53;14.20;;;7.88;;
70707;SDS011;58277;47.316;18.908;2023-04-09T10:27:17;12.55;;;7.30;;
70707;SDS011;58277;47.316;18.908;2023-04-09T10:29:46;13.73;;;7.55;;
70707;SDS011;58277;47.316;18.908;2023-04-09T10:32:24;13.48;;;7.50;;
70707;SDS011;58277;47.316;18.908;2023-04-09T10:34:49;13.00;;;7.30;;
70707;SDS011;58277;47.316;18.908;2023-04-09T10:37:15;13.02;;;7.32;;
70707;SDS011;58277;47.316;18.908;2023-04-09T10:39:45;12.52;;;7.30;;
70707;SDS011;58277;47.316;18.908;2023-04-09T10:42:19;12.18;;;7.43;;
70707;SDS011;58277;47.316;18.908;2023-04-09T10:44:45;12.82;;;7.20;;
70707;SDS011;58277;47.316;18.908;2023-04-09T10:47:34;13.30;;;7.17;;
70707;SDS011;58277;47.316;18.908;2023-04-09T10:52:39;13.18;;;7.60;;
70707;SDS011;58277;47.316;18.908;2023-04-09T10:55:03;13.25;;;7.38;;
70707;SDS011;58277;47.316;18.908;2023-04-09T10:57:27;13.48;;;7.82;;
70707;SDS011;58277;47.316;18.908;2023-04-09T10:59:51;12.43;;;7.57;;
70707;SDS011;58277;47.316;18.908;2023-04-09T11:05:11;13.50;;;7.95;;
70707;SDS011;58277;47.316;18.908;2023-04-09T11:07:39;13.70;;;7.82;;
70707;SDS011;58277;47.316;18.908;2023-04-09T11:10:05;13.15;;;7.47;;
70707;SDS011;58277;47.316;18.908;2023-04-09T11:12:28;13.50;;;8.00;;
70707;SDS011;58277;47.316;18.908;2023-04-09T11:14:51;14.18;;;8.10;;
70707;SDS011;58277;47.316;18.908;2023-04-09T11:17:14;14.10;;;8.00;;
70707;SDS011;58277;47.316;18.908;2023-04-09T11:19:37;13.40;;;7.43;;
70707;SDS011;58277;47.316;18.908;2023-04-09T11:22:02;13.90;;;8.18;;
70707;SDS011;58277;47.316;18.908;2023-04-09T11:24:27;12.77;;;7.40;;
70707;SDS011;58277;47.316;18.908;2023-04-09T11:27:01;13.85;;;8.13;;
70707;SDS011;58277;47.316;18.908;2023-04-09T11:29:24;13.05;;;7.85;;
70707;SDS011;58277;47.316;18.908;2023-04-09T11:31:47;12.95;;;7.35;;
70707;SDS011;58277;47.316;18.908;2023-04-09T11:34:10;13.98;;;8.13;;
70707;SDS011;58277;47.316;18.908;2023-04-09T11:36:36;14.40;;;7.50;;
70707;SDS011;58277;47.316;18.908;2023-04-09T11:38:59;12.18;;;7.40;;
70707;SDS011;58277;47.316;18.908;2023-04-09T11:43:55;13.65;;;7.85;;
70707;SDS011;58277;47.316;18.908;2023-04-09T11:46:18;13.18;;;7.82;;
70707;SDS011;58277;47.316;18.908;2023-04-09T11:48:42;13.37;;;7.37;;
70707;SDS011;58277;47.316;18.908;2023-04-09T11:51:05;12.88;;;7.57;;
70707;SDS011;58277;47.316;18.908;2023-04-09T11:53:29;12.45;;;7.45;;
70707;SDS011;58277;47.316;18.908;2023-04-09T11:55:52;12.88;;;7.50;;
70707;SDS011;58277;47.316;18.908;2023-04-09T11:58:15;12.65;;;7.13;;
70707;SDS011;58277;47.316;18.908;2023-04-09T12:00:39;13.23;;;7.47;;
70707;SDS011;58277;47.316;18.908;2023-04-09T12:03:03;13.18;;;7.45;;
70707;SDS011;58277;47.316;18.908;2023-04-09T12:05:28;13.57;;;8.07;;
70707;SDS011;58277;47.316;18.908;2023-04-09T12:07:55;14.25;;;7.93;;
70707;SDS011;58277;47.316;18.908;2023-04-09T12:10:24;15.70;;;7.97;;
70707;SDS011;58277;47.316;18.908;2023-04-09T12:12:48;14.43;;;7.87;;
70707;SDS011;58277;47.316;18.908;2023-04-09T12:15:18;13.55;;;7.60;;
70707;SDS011;58277;47.316;18.908;2023-04-09T12:17:46;14.80;;;8.05;;
70707;SDS011;58277;47.316;18.908;2023-04-09T12:20:12;15.27;;;8.00;;
70707;SDS011;58277;47.316;18.908;2023-04-09T12:22:36;14.07;;;7.88;;
70707;SDS011;58277;47.316;18.908;2023-04-09T12:25:02;14.97;;;8.40;;
70707;SDS011;58277;47.316;18.908;2023-04-09T12:27:24;12.32;;;7.72;;
70707;SDS011;58277;47.316;18.908;2023-04-09T12:29:47;14.30;;;7.93;;
70707;SDS011;58277;47.316;18.908;2023-04-09T12:32:24;15.00;;;7.93;;
70707;SDS011;58277;47.316;18.908;2023-04-09T12:34:47;14.05;;;8.23;;
70707;SDS011;58277;47.316;18.908;2023-04-09T12:37:11;12.30;;;7.20;;
70707;SDS011;58277;47.316;18.908;2023-04-09T12:39:34;12.93;;;7.85;;
70707;SDS011;58277;47.316;18.908;2023-04-09T12:41:56;14.38;;;8.10;;
70707;SDS011;58277;47.316;18.908;2023-04-09T12:44:19;13.70;;;8.10;;
70707;SDS011;58277;47.316;18.908;2023-04-09T12:46:42;14.10;;;7.57;;
70707;SDS011;58277;47.316;18.908;2023-04-09T12:49:04;13.47;;;7.67;;
70707;SDS011;58277;47.316;18.908;2023-04-09T12:51:27;14.55;;;7.85;;
70707;SDS011;58277;47.316;18.908;2023-04-09T12:53:50;14.63;;;7.70;;
70707;SDS011;58277;47.316;18.908;2023-04-09T12:56:13;13.80;;;6.90;;
70707;SDS011;58277;47.316;18.908;2023-04-09T12:58:36;14.40;;;8.02;;
70707;SDS011;58277;47.316;18.908;2023-04-09T13:00:59;13.63;;;7.93;;
70707;SDS011;58277;47.316;18.908;2023-04-09T13:03:23;14.35;;;8.05;;
70707;SDS011;58277;47.316;18.908;2023-04-09T13:05:46;14.07;;;8.30;;
70707;SDS011;58277;47.316;18.908;2023-04-09T13:08:09;14.23;;;8.90;;
70707;SDS011;58277;47.316;18.908;2023-04-09T13:10:32;15.63;;;8.73;;
70707;SDS011;58277;47.316;18.908;2023-04-09T13:12:55;15.30;;;8.57;;
70707;SDS011;58277;47.316;18.908;2023-04-09T13:15:18;14.27;;;7.90;;
70707;SDS011;58277;47.316;18.908;2023-04-09T13:17:40;14.20;;;8.13;;
70707;SDS011;58277;47.316;18.908;2023-04-09T13:20:03;13.70;;;7.63;;
70707;SDS011;58277;47.316;18.908;2023-04-09T13:22:27;14.88;;;8.02;;
70707;SDS011;58277;47.316;18.908;2023-04-09T13:24:50;14.07;;;7.63;;
70707;SDS011;58277;47.316;18.908;2023-04-09T13:27:13;13.57;;;7.70;;
70707;SDS011;58277;47.316;18.908;2023-04-09T13:29:37;12.82;;;7.00;;
70707;SDS011;58277;47.316;18.908;2023-04-09T13:32:00;13.15;;;7.28;;
70707;SDS011;58277;47.316;18.908;2023-04-09T13:34:28;13.75;;;7.53;;
70707;SDS011;58277;47.316;18.908;2023-04-09T13:36:51;13.50;;;7.20;;
70707;SDS011;58277;47.316;18.908;2023-04-09T13:39:14;13.48;;;7.30;;
70707;SDS011;58277;47.316;18.908;2023-04-09T13:41:37;13.43;;;7.30;;
70707;SDS011;58277;47.316;18.908;2023-04-09T13:44:00;12.77;;;7.30;;
70707;SDS011;58277;47.316;18.908;2023-04-09T13:46:23;13.23;;;7.90;;
70707;SDS011;58277;47.316;18.908;2023-04-09T13:48:46;14.03;;;7.40;;
70707;SDS011;58277;47.316;18.908;2023-04-09T13:51:08;14.20;;;7.70;;
70707;SDS011;58277;47.316;18.908;2023-04-09T13:53:31;13.05;;;7.70;;
70707;SDS011;58277;47.316;18.908;2023-04-09T13:55:54;13.30;;;7.28;;
70707;SDS011;58277;47.316;18.908;2023-04-09T13:58:17;13.25;;;7.88;;
70707;SDS011;58277;47.316;18.908;2023-04-09T14:00:39;13.27;;;7.50;;
70707;SDS011;58277;47.316;18.908;2023-04-09T14:03:03;13.02;;;7.40;;
70707;SDS011;58277;47.316;18.908;2023-04-09T14:05:26;12.95;;;7.53;;
70707;SDS011;58277;47.316;18.908;2023-04-09T14:07:48;13.45;;;7.47;;
70707;SDS011;58277;47.316;18.908;2023-04-09T14:10:11;15.60;;;7.72;;
70707;SDS011;58277;47.316;18.908;2023-04-09T14:12:34;14.60;;;7.60;;
70707;SDS011;58277;47.316;18.908;2023-04-09T14:14:57;14.55;;;7.38;;
70707;SDS011;58277;47.316;18.908;2023-04-09T14:17:20;13.00;;;7.20;;